sensor_id;sensor_type;location;lat;lon;timestamp;P1;durP1;ratioP1;P2;durP2;ratioP2
17564;SDS011;62994;52.126;5.596;2023-08-17T00:00:56;1.88;;;1.77;;
17564;SDS011;62994;52.126;5.596;2023-08-17T00:03:28;1.73;;;1.63;;
17564;SDS011;62994;52.126;5.596;2023-08-17T00:05:55;2.67;;;1.70;;
17564;SDS011;62994;52.126;5.596;2023-08-17T00:08:23;2.67;;;1.95;;
17564;SDS011;62994;52.126;5.596;2023-08-17T00:10:55;1.67;;;1.52;;
17564;SDS011;62994;52.126;5.596;2023-08-17T00:13:23;3.22;;;2.05;;
17564;SDS011;62994;52.126;5.596;2023-08-17T00:15:50;2.70;;;1.63;;
17564;SDS011;62994;52.126;5.596;2023-08-17T00:18:16;1.73;;;1.50;;
17564;SDS011;62994;52.126;5.596;2023-08-17T00:20:45;2.65;;;1.63;;
17564;SDS011;62994;52.126;5.596;2023-08-17T00:23:15;1.85;;;1.60;;
17564;SDS011;62994;52.126;5.596;2023-08-17T00:25:42;1.98;;;1.67;;
17564;SDS011;62994;52.126;5.596;2023-08-17T00:28:11;4.90;;;2.22;;
17564;SDS011;62994;52.126;5.596;2023-08-17T00:30:38;2.20;;;2.00;;
17564;SDS011;62994;52.126;5.596;2023-08-17T00:33:05;2.15;;;1.48;;
17564;SDS011;62994;52.126;5.596;2023-08-17T00:35:32;1.35;;;1.25;;
17564;SDS011;62994;52.126;5.596;2023-08-17T00:38:00;2.00;;;1.80;;
17564;SDS011;62994;52.126;5.596;2023-08-17T00:40:27;2.88;;;1.90;;
17564;SDS011;62994;52.126;5.596;2023-08-17T00:42:54;1.60;;;1.50;;
17564;SDS011;62994;52.126;5.596;2023-08-17T00:45:22;1.95;;;1.52;;
17564;SDS011;62994;52.126;5.596;2023-08-17T00:47:50;1.60;;;1.50;;
17564;SDS011;62994;52.126;5.596;2023-08-17T00:50:17;3.42;;;2.05;;
17564;SDS011;62994;52.126;5.596;2023-08-17T00:52:44;2.03;;;1.55;;
17564;SDS011;62994;52.126;5.596;2023-08-17T00:55:18;3.75;;;1.60;;
17564;SDS011;62994;52.126;5.596;2023-08-17T00:57:45;2.22;;;1.92;;
17564;SDS011;62994;52.126;5.596;2023-08-17T01:00:12;2.10;;;1.75;;
17564;SDS011;62994;52.126;5.596;2023-08-17T01:02:40;3.40;;;1.70;;
17564;SDS011;62994;52.126;5.596;2023-08-17T01:05:08;2.22;;;1.40;;
17564;SDS011;62994;52.126;5.596;2023-08-17T01:07:35;3.40;;;1.70;;
17564;SDS011;62994;52.126;5.596;2023-08-17T01:10:03;2.13;;;1.65;;
17564;SDS011;62994;52.126;5.596;2023-08-17T01:12:36;3.45;;;1.65;;
17564;SDS011;62994;52.126;5.596;2023-08-17T01:15:09;2.58;;;1.50;;
17564;SDS011;62994;52.126;5.596;2023-08-17T01:17:40;1.98;;;1.35;;
17564;SDS011;62994;52.126;5.596;2023-08-17T01:20:10;1.40;;;1.30;;
17564;SDS011;62994;52.126;5.596;2023-08-17T01:22:42;1.80;;;1.70;;
17564;SDS011;62994;52.126;5.596;2023-08-17T01:25:14;1.42;;;1.33;;
17564;SDS011;62994;52.126;5.596;2023-08-17T01:27:42;1.60;;;1.50;;
17564;SDS011;62994;52.126;5.596;2023-08-17T01:30:16;1.70;;;1.58;;
17564;SDS011;62994;52.126;5.596;2023-08-17T01:32:44;2.03;;;1.38;;
17564;SDS011;62994;52.126;5.596;2023-08-17T01:35:21;4.47;;;1.35;;
17564;SDS011;62994;52.126;5.596;2023-08-17T01:37:55;3.05;;;1.65;;
17564;SDS011;62994;52.126;5.596;2023-08-17T01:40:26;1.42;;;1.30;;
17564;SDS011;62994;52.126;5.596;2023-08-17T01:42:55;3.08;;;1.30;;
17564;SDS011;62994;52.126;5.596;2023-08-17T01:45:25;1.35;;;1.25;;
17564;SDS011;62994;52.126;5.596;2023-08-17T01:47:52;4.45;;;1.40;;
17564;SDS011;62994;52.126;5.596;2023-08-17T01:50:21;2.17;;;1.40;;
17564;SDS011;62994;52.126;5.596;2023-08-17T01:52:50;3.80;;;1.60;;
17564;SDS011;62994;52.126;5.596;2023-08-17T01:55:17;2.17;;;1.55;;
17564;SDS011;62994;52.126;5.596;2023-08-17T01:57:46;2.35;;;1.60;;
17564;SDS011;62994;52.126;5.596;2023-08-17T02:00:13;4.40;;;1.60;;
17564;SDS011;62994;52.126;5.596;2023-08-17T02:02:41;2.55;;;1.42;;
17564;SDS011;62994;52.126;5.596;2023-08-17T02:05:12;2.33;;;1.60;;
17564;SDS011;62994;52.126;5.596;2023-08-17T02:07:39;3.15;;;1.40;;
17564;SDS011;62994;52.126;5.596;2023-08-17T02:10:09;3.88;;;1.73;;
17564;SDS011;62994;52.126;5.596;2023-08-17T02:12:36;1.90;;;1.80;;
17564;SDS011;62994;52.126;5.596;2023-08-17T02:15:05;3.35;;;1.63;;
17564;SDS011;62994;52.126;5.596;2023-08-17T02:17:33;3.58;;;1.70;;
17564;SDS011;62994;52.126;5.596;2023-08-17T02:19:59;1.70;;;1.55;;
17564;SDS011;62994;52.126;5.596;2023-08-17T02:22:28;1.73;;;1.27;;
17564;SDS011;62994;52.126;5.596;2023-08-17T02:24:58;2.83;;;1.83;;
17564;SDS011;62994;52.126;5.596;2023-08-17T02:27:25;2.60;;;1.77;;
17564;SDS011;62994;52.126;5.596;2023-08-17T02:29:56;4.07;;;2.22;;
17564;SDS011;62994;52.126;5.596;2023-08-17T02:32:24;3.28;;;1.50;;
17564;SDS011;62994;52.126;5.596;2023-08-17T02:34:51;2.17;;;1.73;;
17564;SDS011;62994;52.126;5.596;2023-08-17T02:37:18;2.55;;;2.00;;
17564;SDS011;62994;52.126;5.596;2023-08-17T02:39:45;2.70;;;1.75;;
17564;SDS011;62994;52.126;5.596;2023-08-17T02:42:12;3.20;;;1.95;;
17564;SDS011;62994;52.126;5.596;2023-08-17T02:44:39;2.05;;;1.88;;
17564;SDS011;62994;52.126;5.596;2023-08-17T02:47:06;1.70;;;1.60;;
17564;SDS011;62994;52.126;5.596;2023-08-17T02:49:34;4.00;;;1.90;;
17564;SDS011;62994;52.126;5.596;2023-08-17T02:52:01;2.78;;;1.33;;
17564;SDS011;62994;52.126;5.596;2023-08-17T02:54:28;3.90;;;1.58;;
17564;SDS011;62994;52.126;5.596;2023-08-17T02:56:56;1.83;;;1.42;;
17564;SDS011;62994;52.126;5.596;2023-08-17T02:59:24;6.88;;;2.00;;
17564;SDS011;62994;52.126;5.596;2023-08-17T03:01:53;2.13;;;1.60;;
17564;SDS011;62994;52.126;5.596;2023-08-17T03:04:21;3.88;;;1.60;;
17564;SDS011;62994;52.126;5.596;2023-08-17T03:06:51;2.20;;;1.40;;
17564;SDS011;62994;52.126;5.596;2023-08-17T03:09:23;2.17;;;1.75;;
17564;SDS011;62994;52.126;5.596;2023-08-17T03:11:50;1.30;;;1.30;;
17564;SDS011;62994;52.126;5.596;2023-08-17T03:14:17;1.65;;;1.42;;
17564;SDS011;62994;52.126;5.596;2023-08-17T03:16:44;3.17;;;1.75;;
17564;SDS011;62994;52.126;5.596;2023-08-17T03:19:11;1.80;;;1.50;;
17564;SDS011;62994;52.126;5.596;2023-08-17T03:21:38;2.15;;;1.50;;
17564;SDS011;62994;52.126;5.596;2023-08-17T03:24:12;2.75;;;1.52;;
17564;SDS011;62994;52.126;5.596;2023-08-17T03:26:39;2.30;;;1.40;;
17564;SDS011;62994;52.126;5.596;2023-08-17T03:29:06;4.22;;;1.50;;
17564;SDS011;62994;52.126;5.596;2023-08-17T03:31:34;3.28;;;1.52;;
17564;SDS011;62994;52.126;5.596;2023-08-17T03:34:01;3.63;;;1.58;;
17564;SDS011;62994;52.126;5.596;2023-08-17T03:36:29;2.80;;;1.80;;
17564;SDS011;62994;52.126;5.596;2023-08-17T03:38:56;3.40;;;2.25;;
17564;SDS011;62994;52.126;5.596;2023-08-17T03:41:24;1.85;;;1.75;;
17564;SDS011;62994;52.126;5.596;2023-08-17T03:43:52;1.65;;;1.50;;
17564;SDS011;62994;52.126;5.596;2023-08-17T03:46:19;4.93;;;1.63;;
17564;SDS011;62994;52.126;5.596;2023-08-17T03:48:46;2.47;;;1.55;;
17564;SDS011;62994;52.126;5.596;2023-08-17T03:51:16;2.17;;;1.73;;
17564;SDS011;62994;52.126;5.596;2023-08-17T03:53:49;1.80;;;1.52;;
17564;SDS011;62994;52.126;5.596;2023-08-17T03:56:29;2.72;;;1.95;;
17564;SDS011;62994;52.126;5.596;2023-08-17T03:58:56;1.88;;;1.67;;
17564;SDS011;62994;52.126;5.596;2023-08-17T04:01:23;2.33;;;1.60;;
17564;SDS011;62994;52.126;5.596;2023-08-17T04:03:50;2.80;;;1.80;;
17564;SDS011;62994;52.126;5.596;2023-08-17T04:06:17;3.88;;;2.00;;
17564;SDS011;62994;52.126;5.596;2023-08-17T04:08:44;2.03;;;1.80;;
17564;SDS011;62994;52.126;5.596;2023-08-17T04:11:11;4.78;;;1.70;;
17564;SDS011;62994;52.126;5.596;2023-08-17T04:13:40;1.88;;;1.60;;
17564;SDS011;62994;52.126;5.596;2023-08-17T04:16:07;2.78;;;1.58;;
17564;SDS011;62994;52.126;5.596;2023-08-17T04:18:33;1.70;;;1.60;;
17564;SDS011;62994;52.126;5.596;2023-08-17T04:21:01;3.10;;;1.88;;
17564;SDS011;62994;52.126;5.596;2023-08-17T04:23:28;4.18;;;1.88;;
17564;SDS011;62994;52.126;5.596;2023-08-17T04:25:55;2.78;;;1.75;;
17564;SDS011;62994;52.126;5.596;2023-08-17T04:28:26;3.60;;;1.90;;
17564;SDS011;62994;52.126;5.596;2023-08-17T04:30:54;1.70;;;1.27;;
17564;SDS011;62994;52.126;5.596;2023-08-17T04:33:21;1.83;;;1.70;;
17564;SDS011;62994;52.126;5.596;2023-08-17T04:35:48;1.50;;;1.40;;
17564;SDS011;62994;52.126;5.596;2023-08-17T04:38:15;2.13;;;1.45;;
17564;SDS011;62994;52.126;5.596;2023-08-17T04:40:53;3.03;;;1.75;;
17564;SDS011;62994;52.126;5.596;2023-08-17T04:43:20;2.55;;;1.67;;
17564;SDS011;62994;52.126;5.596;2023-08-17T04:45:47;4.60;;;1.27;;
17564;SDS011;62994;52.126;5.596;2023-08-17T04:48:15;2.80;;;1.58;;
17564;SDS011;62994;52.126;5.596;2023-08-17T04:50:42;1.30;;;1.20;;
17564;SDS011;62994;52.126;5.596;2023-08-17T04:53:09;2.92;;;1.65;;
17564;SDS011;62994;52.126;5.596;2023-08-17T04:55:36;2.25;;;1.73;;
17564;SDS011;62994;52.126;5.596;2023-08-17T04:58:03;3.03;;;1.90;;
17564;SDS011;62994;52.126;5.596;2023-08-17T05:00:32;1.63;;;1.30;;
17564;SDS011;62994;52.126;5.596;2023-08-17T05:02:59;4.00;;;2.08;;
17564;SDS011;62994;52.126;5.596;2023-08-17T05:05:40;3.55;;;1.55;;
17564;SDS011;62994;52.126;5.596;2023-08-17T05:08:12;2.22;;;1.67;;
17564;SDS011;62994;52.126;5.596;2023-08-17T05:10:40;4.20;;;1.67;;
17564;SDS011;62994;52.126;5.596;2023-08-17T05:13:07;1.85;;;1.52;;
17564;SDS011;62994;52.126;5.596;2023-08-17T05:15:34;3.35;;;1.60;;
17564;SDS011;62994;52.126;5.596;2023-08-17T05:18:05;1.55;;;1.45;;
17564;SDS011;62994;52.126;5.596;2023-08-17T05:20:32;3.50;;;1.60;;
17564;SDS011;62994;52.126;5.596;2023-08-17T05:23:00;1.40;;;1.30;;
17564;SDS011;62994;52.126;5.596;2023-08-17T05:25:27;1.73;;;1.55;;
17564;SDS011;62994;52.126;5.596;2023-08-17T05:27:55;2.47;;;1.73;;
17564;SDS011;62994;52.126;5.596;2023-08-17T05:30:22;9.98;;;3.10;;
17564;SDS011;62994;52.126;5.596;2023-08-17T05:32:49;4.60;;;1.80;;
17564;SDS011;62994;52.126;5.596;2023-08-17T05:35:16;2.63;;;1.70;;
17564;SDS011;62994;52.126;5.596;2023-08-17T05:37:43;2.35;;;1.90;;
17564;SDS011;62994;52.126;5.596;2023-08-17T05:40:12;1.98;;;1.88;;
17564;SDS011;62994;52.126;5.596;2023-08-17T05:42:39;2.50;;;1.58;;
17564;SDS011;62994;52.126;5.596;2023-08-17T05:45:07;3.28;;;1.60;;
17564;SDS011;62994;52.126;5.596;2023-08-17T05:47:37;2.03;;;1.63;;
17564;SDS011;62994;52.126;5.596;2023-08-17T05:50:04;4.97;;;1.67;;
17564;SDS011;62994;52.126;5.596;2023-08-17T05:52:32;2.53;;;1.60;;
17564;SDS011;62994;52.126;5.596;2023-08-17T05:54:59;1.92;;;1.35;;
17564;SDS011;62994;52.126;5.596;2023-08-17T05:57:29;1.85;;;1.73;;
17564;SDS011;62994;52.126;5.596;2023-08-17T05:59:56;2.25;;;1.65;;
17564;SDS011;62994;52.126;5.596;2023-08-17T06:02:25;2.92;;;1.80;;
17564;SDS011;62994;52.126;5.596;2023-08-17T06:04:52;3.25;;;1.67;;
17564;SDS011;62994;52.126;5.596;2023-08-17T06:07:20;2.47;;;1.90;;
17564;SDS011;62994;52.126;5.596;2023-08-17T06:09:48;2.83;;;1.80;;
17564;SDS011;62994;52.126;5.596;2023-08-17T06:12:14;3.13;;;2.05;;
17564;SDS011;62994;52.126;5.596;2023-08-17T06:14:49;2.17;;;1.70;;
17564;SDS011;62994;52.126;5.596;2023-08-17T06:17:16;7.68;;;2.35;;
17564;SDS011;62994;52.126;5.596;2023-08-17T06:19:47;4.85;;;2.10;;
17564;SDS011;62994;52.126;5.596;2023-08-17T06:22:14;2.65;;;1.70;;
17564;SDS011;62994;52.126;5.596;2023-08-17T06:24:41;2.05;;;1.95;;
17564;SDS011;62994;52.126;5.596;2023-08-17T06:27:13;3.58;;;1.85;;
17564;SDS011;62994;52.126;5.596;2023-08-17T06:29:43;1.80;;;1.67;;
17564;SDS011;62994;52.126;5.596;2023-08-17T06:32:15;4.75;;;1.90;;
17564;SDS011;62994;52.126;5.596;2023-08-17T06:34:42;2.53;;;1.83;;
17564;SDS011;62994;52.126;5.596;2023-08-17T06:37:15;3.75;;;2.15;;
17564;SDS011;62994;52.126;5.596;2023-08-17T06:39:42;2.65;;;1.67;;
17564;SDS011;62994;52.126;5.596;2023-08-17T06:42:15;2.05;;;1.95;;
17564;SDS011;62994;52.126;5.596;2023-08-17T06:44:42;2.90;;;1.80;;
17564;SDS011;62994;52.126;5.596;2023-08-17T06:47:09;1.75;;;1.65;;
17564;SDS011;62994;52.126;5.596;2023-08-17T06:49:44;4.63;;;2.17;;
17564;SDS011;62994;52.126;5.596;2023-08-17T06:52:11;3.35;;;1.98;;
17564;SDS011;62994;52.126;5.596;2023-08-17T06:54:38;4.53;;;2.35;;
17564;SDS011;62994;52.126;5.596;2023-08-17T06:57:05;3.30;;;2.03;;
17564;SDS011;62994;52.126;5.596;2023-08-17T06:59:34;3.33;;;2.25;;
17564;SDS011;62994;52.126;5.596;2023-08-17T07:02:01;6.63;;;2.35;;
17564;SDS011;62994;52.126;5.596;2023-08-17T07:04:33;2.17;;;1.65;;
17564;SDS011;62994;52.126;5.596;2023-08-17T07:07:00;4.53;;;1.90;;
17564;SDS011;62994;52.126;5.596;2023-08-17T07:09:27;2.47;;;1.90;;
17564;SDS011;62994;52.126;5.596;2023-08-17T07:11:58;3.15;;;2.17;;
17564;SDS011;62994;52.126;5.596;2023-08-17T07:14:25;2.53;;;2.28;;
17564;SDS011;62994;52.126;5.596;2023-08-17T07:16:58;2.85;;;2.20;;
17564;SDS011;62994;52.126;5.596;2023-08-17T07:19:25;6.78;;;2.00;;
17564;SDS011;62994;52.126;5.596;2023-08-17T07:21:57;4.18;;;1.80;;
17564;SDS011;62994;52.126;5.596;2023-08-17T07:24:24;3.28;;;2.20;;
17564;SDS011;62994;52.126;5.596;2023-08-17T07:26:51;2.30;;;2.10;;
17564;SDS011;62994;52.126;5.596;2023-08-17T07:29:25;3.65;;;2.70;;
17564;SDS011;62994;52.126;5.596;2023-08-17T07:31:53;3.20;;;2.20;;
17564;SDS011;62994;52.126;5.596;2023-08-17T07:34:25;2.03;;;1.80;;
17564;SDS011;62994;52.126;5.596;2023-08-17T07:36:57;5.40;;;2.40;;
17564;SDS011;62994;52.126;5.596;2023-08-17T07:39:24;3.78;;;2.03;;
17564;SDS011;62994;52.126;5.596;2023-08-17T07:41:51;3.20;;;1.80;;
17564;SDS011;62994;52.126;5.596;2023-08-17T07:44:18;1.90;;;1.80;;
17564;SDS011;62994;52.126;5.596;2023-08-17T07:46:46;1.70;;;1.60;;
17564;SDS011;62994;52.126;5.596;2023-08-17T07:49:13;5.80;;;1.85;;
17564;SDS011;62994;52.126;5.596;2023-08-17T07:51:42;3.13;;;1.85;;
17564;SDS011;62994;52.126;5.596;2023-08-17T07:54:10;2.45;;;2.33;;
17564;SDS011;62994;52.126;5.596;2023-08-17T07:56:37;4.28;;;2.05;;
17564;SDS011;62994;52.126;5.596;2023-08-17T07:59:09;2.20;;;1.98;;
17564;SDS011;62994;52.126;5.596;2023-08-17T08:01:36;5.25;;;1.90;;
17564;SDS011;62994;52.126;5.596;2023-08-17T08:04:08;2.45;;;1.90;;
17564;SDS011;62994;52.126;5.596;2023-08-17T08:06:35;4.88;;;1.92;;
17564;SDS011;62994;52.126;5.596;2023-08-17T08:09:02;4.05;;;2.00;;
17564;SDS011;62994;52.126;5.596;2023-08-17T08:11:30;1.70;;;1.60;;
17564;SDS011;62994;52.126;5.596;2023-08-17T08:14:00;2.50;;;1.70;;
17564;SDS011;62994;52.126;5.596;2023-08-17T08:16:27;4.25;;;1.98;;
17564;SDS011;62994;52.126;5.596;2023-08-17T08:18:56;1.67;;;1.58;;
17564;SDS011;62994;52.126;5.596;2023-08-17T08:21:23;3.40;;;1.77;;
17564;SDS011;62994;52.126;5.596;2023-08-17T08:23:52;2.92;;;2.15;;
17564;SDS011;62994;52.126;5.596;2023-08-17T08:26:24;2.28;;;1.90;;
17564;SDS011;62994;52.126;5.596;2023-08-17T08:28:56;6.95;;;2.95;;
17564;SDS011;62994;52.126;5.596;2023-08-17T08:31:24;3.33;;;1.58;;
17564;SDS011;62994;52.126;5.596;2023-08-17T08:33:51;6.18;;;1.88;;
17564;SDS011;62994;52.126;5.596;2023-08-17T08:36:18;3.47;;;1.70;;
17564;SDS011;62994;52.126;5.596;2023-08-17T08:38:48;4.18;;;2.25;;
17564;SDS011;62994;52.126;5.596;2023-08-17T08:41:16;2.95;;;1.80;;
17564;SDS011;62994;52.126;5.596;2023-08-17T08:43:43;2.92;;;1.90;;
17564;SDS011;62994;52.126;5.596;2023-08-17T08:46:13;3.10;;;1.70;;
17564;SDS011;62994;52.126;5.596;2023-08-17T08:48:43;3.80;;;1.70;;
17564;SDS011;62994;52.126;5.596;2023-08-17T08:51:13;3.90;;;1.83;;
17564;SDS011;62994;52.126;5.596;2023-08-17T08:53:48;2.22;;;1.58;;
17564;SDS011;62994;52.126;5.596;2023-08-17T08:56:26;3.05;;;2.03;;
17564;SDS011;62994;52.126;5.596;2023-08-17T08:58:57;3.03;;;2.13;;
17564;SDS011;62994;52.126;5.596;2023-08-17T09:01:29;6.93;;;1.92;;
17564;SDS011;62994;52.126;5.596;2023-08-17T09:03:58;3.08;;;1.88;;
17564;SDS011;62994;52.126;5.596;2023-08-17T09:06:26;6.70;;;2.40;;
17564;SDS011;62994;52.126;5.596;2023-08-17T09:08:55;4.65;;;2.20;;
17564;SDS011;62994;52.126;5.596;2023-08-17T09:11:26;3.95;;;2.10;;
17564;SDS011;62994;52.126;5.596;2023-08-17T09:13:53;2.70;;;2.10;;
17564;SDS011;62994;52.126;5.596;2023-08-17T09:16:20;3.95;;;1.98;;
17564;SDS011;62994;52.126;5.596;2023-08-17T09:18:49;2.40;;;2.20;;
17564;SDS011;62994;52.126;5.596;2023-08-17T09:21:24;4.10;;;2.17;;
17564;SDS011;62994;52.126;5.596;2023-08-17T09:23:53;3.78;;;2.10;;
17564;SDS011;62994;52.126;5.596;2023-08-17T09:26:29;3.63;;;2.65;;
17564;SDS011;62994;52.126;5.596;2023-08-17T09:28:58;2.60;;;2.40;;
17564;SDS011;62994;52.126;5.596;2023-08-17T09:31:27;3.13;;;2.58;;
17564;SDS011;62994;52.126;5.596;2023-08-17T09:34:01;4.60;;;2.70;;
17564;SDS011;62994;52.126;5.596;2023-08-17T09:36:32;3.50;;;2.55;;
17564;SDS011;62994;52.126;5.596;2023-08-17T09:39:02;7.00;;;2.92;;
17564;SDS011;62994;52.126;5.596;2023-08-17T09:41:29;3.47;;;3.17;;
17564;SDS011;62994;52.126;5.596;2023-08-17T09:43:57;3.53;;;3.05;;
17564;SDS011;62994;52.126;5.596;2023-08-17T09:46:24;9.40;;;3.00;;
17564;SDS011;62994;52.126;5.596;2023-08-17T09:48:53;3.25;;;2.90;;
17564;SDS011;62994;52.126;5.596;2023-08-17T09:51:27;5.55;;;2.78;;
17564;SDS011;62994;52.126;5.596;2023-08-17T09:53:57;6.50;;;3.53;;
17564;SDS011;62994;52.126;5.596;2023-08-17T09:56:26;5.88;;;3.20;;
17564;SDS011;62994;52.126;5.596;2023-08-17T09:58:56;5.15;;;3.53;;
17564;SDS011;62994;52.126;5.596;2023-08-17T10:01:27;3.65;;;3.15;;
17564;SDS011;62994;52.126;5.596;2023-08-17T10:03:55;3.22;;;2.90;;
17564;SDS011;62994;52.126;5.596;2023-08-17T10:06:31;7.35;;;2.97;;
17564;SDS011;62994;52.126;5.596;2023-08-17T10:09:01;5.00;;;3.30;;
17564;SDS011;62994;52.126;5.596;2023-08-17T10:11:33;4.70;;;3.13;;
17564;SDS011;62994;52.126;5.596;2023-08-17T10:14:04;3.67;;;3.08;;
17564;SDS011;62994;52.126;5.596;2023-08-17T10:16:41;5.88;;;2.78;;
17564;SDS011;62994;52.126;5.596;2023-08-17T10:19:22;5.47;;;3.30;;
17564;SDS011;62994;52.126;5.596;2023-08-17T10:22:00;3.72;;;2.70;;
17564;SDS011;62994;52.126;5.596;2023-08-17T10:24:31;3.67;;;3.38;;
17564;SDS011;62994;52.126;5.596;2023-08-17T10:27:01;6.35;;;2.90;;
17564;SDS011;62994;52.126;5.596;2023-08-17T10:29:29;5.78;;;2.92;;
17564;SDS011;62994;52.126;5.596;2023-08-17T10:31:57;3.78;;;2.47;;
17564;SDS011;62994;52.126;5.596;2023-08-17T10:34:26;3.88;;;3.15;;
17564;SDS011;62994;52.126;5.596;2023-08-17T10:36:55;6.85;;;2.78;;
17564;SDS011;62994;52.126;5.596;2023-08-17T10:39:30;3.60;;;2.83;;
17564;SDS011;62994;52.126;5.596;2023-08-17T10:42:03;3.20;;;2.47;;
17564;SDS011;62994;52.126;5.596;2023-08-17T10:44:40;3.40;;;2.92;;
17564;SDS011;62994;52.126;5.596;2023-08-17T10:47:19;8.25;;;3.47;;
17564;SDS011;62994;52.126;5.596;2023-08-17T10:49:48;8.80;;;3.47;;
17564;SDS011;62994;52.126;5.596;2023-08-17T10:52:24;7.97;;;4.07;;
17564;SDS011;62994;52.126;5.596;2023-08-17T10:54:52;7.90;;;3.60;;
17564;SDS011;62994;52.126;5.596;2023-08-17T10:57:29;3.63;;;3.22;;
17564;SDS011;62994;52.126;5.596;2023-08-17T11:00:07;6.78;;;3.53;;
17564;SDS011;62994;52.126;5.596;2023-08-17T11:02:53;6.47;;;3.67;;
17564;SDS011;62994;52.126;5.596;2023-08-17T11:05:37;3.88;;;3.50;;
17564;SDS011;62994;52.126;5.596;2023-08-17T11:08:08;4.63;;;3.78;;
17564;SDS011;62994;52.126;5.596;2023-08-17T11:10:47;6.78;;;3.80;;
17564;SDS011;62994;52.126;5.596;2023-08-17T11:13:15;7.30;;;3.92;;
17564;SDS011;62994;52.126;5.596;2023-08-17T11:15:45;4.47;;;3.40;;
17564;SDS011;62994;52.126;5.596;2023-08-17T11:18:18;5.13;;;3.30;;
17564;SDS011;62994;52.126;5.596;2023-08-17T11:20:54;5.35;;;3.60;;
17564;SDS011;62994;52.126;5.596;2023-08-17T11:23:24;6.60;;;3.25;;
17564;SDS011;62994;52.126;5.596;2023-08-17T11:25:52;3.33;;;3.03;;
17564;SDS011;62994;52.126;5.596;2023-08-17T11:28:19;4.70;;;3.40;;
17564;SDS011;62994;52.126;5.596;2023-08-17T11:30:56;6.00;;;3.10;;
17564;SDS011;62994;52.126;5.596;2023-08-17T11:33:30;3.80;;;3.40;;
17564;SDS011;62994;52.126;5.596;2023-08-17T11:35:58;4.47;;;3.28;;
17564;SDS011;62994;52.126;5.596;2023-08-17T11:38:29;4.15;;;3.00;;
17564;SDS011;62994;52.126;5.596;2023-08-17T11:40:57;6.25;;;3.30;;
17564;SDS011;62994;52.126;5.596;2023-08-17T11:43:24;6.65;;;4.10;;
17564;SDS011;62994;52.126;5.596;2023-08-17T11:45:52;8.50;;;3.35;;
17564;SDS011;62994;52.126;5.596;2023-08-17T11:48:21;4.80;;;3.65;;
17564;SDS011;62994;52.126;5.596;2023-08-17T11:50:49;4.07;;;3.15;;
17564;SDS011;62994;52.126;5.596;2023-08-17T11:53:17;4.53;;;3.25;;
17564;SDS011;62994;52.126;5.596;2023-08-17T11:55:45;3.67;;;3.38;;
17564;SDS011;62994;52.126;5.596;2023-08-17T11:58:12;3.00;;;2.80;;
17564;SDS011;62994;52.126;5.596;2023-08-17T12:00:45;3.55;;;3.25;;
17564;SDS011;62994;52.126;5.596;2023-08-17T12:03:15;3.40;;;3.10;;
17564;SDS011;62994;52.126;5.596;2023-08-17T12:05:43;4.38;;;3.42;;
17564;SDS011;62994;52.126;5.596;2023-08-17T12:08:12;4.57;;;3.17;;
17564;SDS011;62994;52.126;5.596;2023-08-17T12:10:41;6.57;;;2.88;;
17564;SDS011;62994;52.126;5.596;2023-08-17T12:13:12;3.78;;;2.90;;
17564;SDS011;62994;52.126;5.596;2023-08-17T12:15:39;3.15;;;2.90;;
17564;SDS011;62994;52.126;5.596;2023-08-17T12:18:07;8.77;;;3.30;;
17564;SDS011;62994;52.126;5.596;2023-08-17T12:20:34;3.40;;;3.10;;
17564;SDS011;62994;52.126;5.596;2023-08-17T12:23:02;4.68;;;3.03;;
17564;SDS011;62994;52.126;5.596;2023-08-17T12:25:36;3.92;;;3.60;;
17564;SDS011;62994;52.126;5.596;2023-08-17T12:28:04;3.45;;;3.00;;
17564;SDS011;62994;52.126;5.596;2023-08-17T12:30:39;3.72;;;2.83;;
17564;SDS011;62994;52.126;5.596;2023-08-17T12:33:06;4.40;;;2.70;;
17564;SDS011;62994;52.126;5.596;2023-08-17T12:35:35;3.45;;;2.92;;
17564;SDS011;62994;52.126;5.596;2023-08-17T12:38:02;4.40;;;2.97;;
17564;SDS011;62994;52.126;5.596;2023-08-17T12:40:33;5.18;;;3.00;;
17564;SDS011;62994;52.126;5.596;2023-08-17T12:43:00;3.28;;;3.05;;
17564;SDS011;62994;52.126;5.596;2023-08-17T12:45:27;6.07;;;3.42;;
17564;SDS011;62994;52.126;5.596;2023-08-17T12:47:56;3.55;;;3.35;;
17564;SDS011;62994;52.126;5.596;2023-08-17T12:50:24;3.03;;;2.83;;
17564;SDS011;62994;52.126;5.596;2023-08-17T12:52:51;3.13;;;2.85;;
17564;SDS011;62994;52.126;5.596;2023-08-17T12:55:18;3.70;;;3.40;;
17564;SDS011;62994;52.126;5.596;2023-08-17T12:57:45;3.67;;;3.40;;
17564;SDS011;62994;52.126;5.596;2023-08-17T13:00:13;3.40;;;3.10;;
17564;SDS011;62994;52.126;5.596;2023-08-17T13:02:49;4.90;;;3.45;;
17564;SDS011;62994;52.126;5.596;2023-08-17T13:05:18;3.35;;;3.15;;
17564;SDS011;62994;52.126;5.596;2023-08-17T13:07:45;3.45;;;3.25;;
17564;SDS011;62994;52.126;5.596;2023-08-17T13:10:12;3.15;;;2.90;;
17564;SDS011;62994;52.126;5.596;2023-08-17T13:12:39;4.32;;;3.45;;
17564;SDS011;62994;52.126;5.596;2023-08-17T13:15:07;3.50;;;3.30;;
17564;SDS011;62994;52.126;5.596;2023-08-17T13:17:37;4.38;;;4.07;;
17564;SDS011;62994;52.126;5.596;2023-08-17T13:20:05;6.28;;;3.78;;
17564;SDS011;62994;52.126;5.596;2023-08-17T13:22:36;3.78;;;3.58;;
17564;SDS011;62994;52.126;5.596;2023-08-17T13:25:04;4.05;;;3.33;;
17564;SDS011;62994;52.126;5.596;2023-08-17T13:27:32;3.50;;;3.30;;
17564;SDS011;62994;52.126;5.596;2023-08-17T13:30:00;3.47;;;3.28;;
17564;SDS011;62994;52.126;5.596;2023-08-17T13:32:29;3.70;;;3.45;;
17564;SDS011;62994;52.126;5.596;2023-08-17T13:35:01;5.43;;;3.00;;
17564;SDS011;62994;52.126;5.596;2023-08-17T13:37:30;4.00;;;3.53;;
17564;SDS011;62994;52.126;5.596;2023-08-17T13:39:59;3.13;;;2.70;;
17564;SDS011;62994;52.126;5.596;2023-08-17T13:42:28;3.47;;;3.22;;
17564;SDS011;62994;52.126;5.596;2023-08-17T13:44:56;3.50;;;3.30;;
17564;SDS011;62994;52.126;5.596;2023-08-17T13:47:25;3.78;;;3.47;;
17564;SDS011;62994;52.126;5.596;2023-08-17T13:49:52;3.50;;;3.20;;
17564;SDS011;62994;52.126;5.596;2023-08-17T13:52:24;3.90;;;3.45;;
17564;SDS011;62994;52.126;5.596;2023-08-17T13:54:51;3.58;;;3.30;;
17564;SDS011;62994;52.126;5.596;2023-08-17T13:57:20;3.50;;;3.20;;
17564;SDS011;62994;52.126;5.596;2023-08-17T13:59:48;4.82;;;3.35;;
17564;SDS011;62994;52.126;5.596;2023-08-17T14:02:15;4.40;;;4.03;;
17564;SDS011;62994;52.126;5.596;2023-08-17T14:04:42;6.90;;;3.72;;
17564;SDS011;62994;52.126;5.596;2023-08-17T14:07:09;4.95;;;3.90;;
17564;SDS011;62994;52.126;5.596;2023-08-17T14:09:39;4.07;;;3.67;;
17564;SDS011;62994;52.126;5.596;2023-08-17T14:12:06;5.22;;;4.45;;
17564;SDS011;62994;52.126;5.596;2023-08-17T14:14:43;3.95;;;3.65;;
17564;SDS011;62994;52.126;5.596;2023-08-17T14:17:10;3.95;;;3.65;;
17564;SDS011;62994;52.126;5.596;2023-08-17T14:19:37;4.60;;;4.30;;
17564;SDS011;62994;52.126;5.596;2023-08-17T14:22:04;3.90;;;3.60;;
17564;SDS011;62994;52.126;5.596;2023-08-17T14:24:32;4.63;;;4.20;;
17564;SDS011;62994;52.126;5.596;2023-08-17T14:27:00;7.47;;;3.75;;
17564;SDS011;62994;52.126;5.596;2023-08-17T14:29:29;5.70;;;4.65;;
17564;SDS011;62994;52.126;5.596;2023-08-17T14:31:58;5.57;;;4.57;;
17564;SDS011;62994;52.126;5.596;2023-08-17T14:34:28;5.97;;;5.47;;
17564;SDS011;62994;52.126;5.596;2023-08-17T14:37:00;5.40;;;4.93;;
17564;SDS011;62994;52.126;5.596;2023-08-17T14:39:28;4.90;;;4.50;;
17564;SDS011;62994;52.126;5.596;2023-08-17T14:41:55;4.60;;;4.25;;
17564;SDS011;62994;52.126;5.596;2023-08-17T14:44:24;6.50;;;5.60;;
17564;SDS011;62994;52.126;5.596;2023-08-17T14:46:56;4.82;;;4.13;;
17564;SDS011;62994;52.126;5.596;2023-08-17T14:49:25;4.30;;;4.00;;
17564;SDS011;62994;52.126;5.596;2023-08-17T14:51:52;4.47;;;4.18;;
17564;SDS011;62994;52.126;5.596;2023-08-17T14:54:19;4.55;;;4.25;;
17564;SDS011;62994;52.126;5.596;2023-08-17T14:56:46;6.35;;;4.90;;
17564;SDS011;62994;52.126;5.596;2023-08-17T14:59:13;4.82;;;4.53;;